createdAt,value
2018-09-13T00:00:13.619Z,5.15
2018-09-13T00:02:42.155Z,7.05
2018-09-13T00:05:10.641Z,9.38
2018-09-13T00:07:39.356Z,6.33
2018-09-13T00:10:08.096Z,5.53
2018-09-13T00:12:36.620Z,6.42
2018-09-13T00:15:05.627Z,6.40
2018-09-13T00:17:34.142Z,5.08
2018-09-13T00:20:02.664Z,6.55
2018-09-13T00:22:31.144Z,6.65
2018-09-13T00:24:59.683Z,4.62
2018-09-13T00:27:28.178Z,5.45
2018-09-13T00:29:56.686Z,7.67
2018-09-13T00:32:25.155Z,7.20
2018-09-13T00:34:53.666Z,6.58
2018-09-13T00:37:22.239Z,8.33
2018-09-13T00:39:50.753Z,5.58
2018-09-13T00:42:19.262Z,6.40
2018-09-13T00:44:47.779Z,5.45
2018-09-13T00:47:16.296Z,11.57
2018-09-13T00:49:44.805Z,6.45
2018-09-13T00:52:13.262Z,6.53
2018-09-13T00:54:41.834Z,8.23
2018-09-13T00:57:10.422Z,5.97
2018-09-13T00:59:38.996Z,6.42
2018-09-13T01:02:07.594Z,6.30
2018-09-13T01:04:36.174Z,5.58
2018-09-13T01:07:04.754Z,8.58
2018-09-13T01:09:33.258Z,6.70
2018-09-13T01:12:01.766Z,5.62
2018-09-13T01:14:30.351Z,6.65
2018-09-13T01:16:58.826Z,8.48
2018-09-13T01:19:27.344Z,5.80
2018-09-13T01:21:55.901Z,6.67
2018-09-13T01:24:24.421Z,8.45
2018-09-13T01:26:52.927Z,9.78
2018-09-13T01:29:22.410Z,8.65
2018-09-13T01:31:50.955Z,6.95
2018-09-13T01:34:19.515Z,8.05
2018-09-13T01:36:48.028Z,8.35
2018-09-13T01:39:16.551Z,9.63
2018-09-13T01:41:45.021Z,7.22
2018-09-13T01:44:13.512Z,9.05
2018-09-13T01:46:42.027Z,8.50
2018-09-13T01:49:11.554Z,8.70
2018-09-13T01:51:40.023Z,7.80
2018-09-13T01:54:08.513Z,9.60
2018-09-13T01:56:37.006Z,8.45
2018-09-13T01:59:05.678Z,7.83
2018-09-13T02:01:34.185Z,8.30
2018-09-13T02:04:03.104Z,9.50
2018-09-13T02:06:31.627Z,8.40
2018-09-13T02:09:00.125Z,12.28
2018-09-13T02:11:28.614Z,9.75
2018-09-13T02:13:57.230Z,11.22
2018-09-13T02:16:25.782Z,10.20
2018-09-13T02:18:54.303Z,8.68
2018-09-13T02:21:22.833Z,11.57
2018-09-13T02:23:51.374Z,10.40
2018-09-13T02:26:19.862Z,9.95
2018-09-13T02:28:48.539Z,10.72
2018-09-13T02:31:17.052Z,12.20
2018-09-13T02:33:45.584Z,11.93
2018-09-13T02:36:14.132Z,14.10
2018-09-13T02:38:42.633Z,12.55
2018-09-13T02:41:11.164Z,11.35
2018-09-13T02:43:39.720Z,12.50
2018-09-13T02:46:08.233Z,11.63
2018-09-13T02:48:36.729Z,10.38
2018-09-13T02:51:05.266Z,13.55
2018-09-13T02:53:33.833Z,12.28
2018-09-13T02:56:02.396Z,12.18
2018-09-13T02:58:30.890Z,11.90
2018-09-13T03:00:59.436Z,13.32
2018-09-13T03:03:27.916Z,12.80
2018-09-13T03:05:56.427Z,10.75
2018-09-13T03:08:24.979Z,13.75
2018-09-13T03:10:53.466Z,13.13
2018-09-13T03:13:21.989Z,12.78
2018-09-13T03:15:50.483Z,12.60
2018-09-13T03:18:19.037Z,16.80
2018-09-13T03:20:47.605Z,12.50
2018-09-13T03:23:16.125Z,14.50
2018-09-13T03:25:44.659Z,12.93
2018-09-13T03:28:13.233Z,13.22
2018-09-13T03:30:41.758Z,11.40
2018-09-13T03:33:10.346Z,15.75
2018-09-13T03:35:38.943Z,12.10
2018-09-13T03:38:07.632Z,18.23
2018-09-13T03:40:36.147Z,13.85
2018-09-13T03:43:04.637Z,15.53
2018-09-13T03:45:33.135Z,16.35
2018-09-13T03:48:01.649Z,12.37
2018-09-13T03:50:30.165Z,13.88
2018-09-13T03:52:58.664Z,11.57
2018-09-13T03:55:27.229Z,11.33
2018-09-13T03:57:55.712Z,12.53
2018-09-13T04:00:24.185Z,14.28
2018-09-13T04:02:52.821Z,14.15
2018-09-13T04:05:21.310Z,12.75
2018-09-13T04:07:49.821Z,15.98
2018-09-13T04:10:18.378Z,16.02
2018-09-13T04:12:47.847Z,14.23
2018-09-13T04:15:16.458Z,15.10
2018-09-13T04:17:44.964Z,15.55
2018-09-13T04:20:13.575Z,17.32
2018-09-13T04:22:42.163Z,16.50
2018-09-13T04:25:10.638Z,14.70
2018-09-13T04:27:39.125Z,17.20
2018-09-13T04:30:07.610Z,18.30
2018-09-13T04:32:36.199Z,18.80
2018-09-13T04:35:04.708Z,16.82
2018-09-13T04:37:35.014Z,16.40
2018-09-13T04:40:03.520Z,18.10
2018-09-13T04:42:32.000Z,17.82
2018-09-13T04:45:00.516Z,16.42
2018-09-13T04:47:29.046Z,20.77
2018-09-13T04:49:57.651Z,18.90
2018-09-13T04:52:26.210Z,20.48
2018-09-13T04:54:54.794Z,19.80
2018-09-13T04:57:23.259Z,19.52
2018-09-13T04:59:51.798Z,17.00
2018-09-13T05:02:20.312Z,17.77
2018-09-13T05:04:48.844Z,18.48
2018-09-13T05:07:17.411Z,18.15
2018-09-13T05:09:45.939Z,21.02
2018-09-13T05:12:14.469Z,20.23
2018-09-13T05:14:42.968Z,18.23
2018-09-13T05:17:11.498Z,19.00
2018-09-13T05:19:39.988Z,19.60
2018-09-13T05:22:08.498Z,21.90
2018-09-13T05:24:36.994Z,18.73
2018-09-13T05:27:05.502Z,21.55
2018-09-13T05:29:34.013Z,19.48
2018-09-13T05:32:02.531Z,18.70
2018-09-13T05:34:31.028Z,19.17
2018-09-13T05:36:59.562Z,18.60
2018-09-13T05:39:32.975Z,20.37
2018-09-13T05:42:01.488Z,19.60
2018-09-13T05:44:30.047Z,22.37
2018-09-13T05:46:58.556Z,20.77
2018-09-13T05:49:27.120Z,18.32
2018-09-13T05:51:55.642Z,20.30
2018-09-13T05:54:24.189Z,20.30
2018-09-13T05:56:53.286Z,20.43
2018-09-13T05:59:21.792Z,19.42
2018-09-13T06:01:50.270Z,21.15
2018-09-13T06:04:18.834Z,18.57
2018-09-13T06:06:47.310Z,17.02
2018-09-13T06:09:15.801Z,18.67
2018-09-13T06:11:44.319Z,18.45
2018-09-13T06:14:12.864Z,21.80
2018-09-13T06:16:46.931Z,18.48
2018-09-13T06:19:15.430Z,20.05
2018-09-13T06:21:44.029Z,21.65
2018-09-13T06:24:12.523Z,17.65
2018-09-13T06:26:41.116Z,18.02
2018-09-13T06:29:09.616Z,18.98
2018-09-13T06:31:38.972Z,18.65
2018-09-13T06:34:08.515Z,18.98
2018-09-13T06:36:37.037Z,19.15
2018-09-13T06:39:07.993Z,18.85
2018-09-13T06:41:36.586Z,15.48
2018-09-13T06:44:05.144Z,16.97
2018-09-13T06:46:33.652Z,17.60
2018-09-13T06:49:02.159Z,15.98
2018-09-13T06:51:31.633Z,15.58
2018-09-13T06:54:00.123Z,15.58
2018-09-13T06:56:28.608Z,17.67
2018-09-13T06:58:57.815Z,15.88
2018-09-13T07:01:26.319Z,15.85
2018-09-13T07:03:54.863Z,14.75
2018-09-13T07:06:23.362Z,15.70
2018-09-13T07:08:51.838Z,14.73
2018-09-13T07:11:20.423Z,17.35
2018-09-13T07:13:48.998Z,15.18
2018-09-13T07:16:17.500Z,18.37
2018-09-13T07:18:46.007Z,15.70
2018-09-13T07:21:14.515Z,16.07
2018-09-13T07:23:43.757Z,15.68
2018-09-13T07:26:12.429Z,17.90
2018-09-13T07:28:40.952Z,15.95
2018-09-13T07:31:09.489Z,15.68
2018-09-13T07:33:38.428Z,16.42
2018-09-13T07:36:07.050Z,15.18
2018-09-13T07:38:35.612Z,15.40
2018-09-13T07:41:04.250Z,16.48
2018-09-13T07:43:32.729Z,15.20
2018-09-13T07:46:01.238Z,15.18
2018-09-13T07:48:29.878Z,15.28
2018-09-13T07:50:58.383Z,17.02
2018-09-13T07:53:26.954Z,14.23
2018-09-13T07:55:55.451Z,15.38
2018-09-13T07:58:23.976Z,14.20
2018-09-13T08:00:52.712Z,15.90
2018-09-13T08:03:21.269Z,17.80
2018-09-13T08:05:49.949Z,14.70
2018-09-13T08:08:18.469Z,13.88
2018-09-13T08:10:46.966Z,13.72
2018-09-13T08:13:15.484Z,15.00
2018-09-13T08:15:44.014Z,13.22
2018-09-13T08:18:12.455Z,11.68
2018-09-13T08:20:41.827Z,13.08
2018-09-13T08:23:10.300Z,10.58
2018-09-13T08:25:39.020Z,13.75
2018-09-13T08:28:07.508Z,11.20
2018-09-13T08:30:36.084Z,11.75
2018-09-13T08:33:04.591Z,12.20
2018-09-13T08:35:33.147Z,8.68
2018-09-13T08:38:01.660Z,10.55
2018-09-13T08:40:30.199Z,9.10
2018-09-13T08:42:58.739Z,8.50
2018-09-13T08:45:27.305Z,9.28
2018-09-13T08:47:55.830Z,6.92
2018-09-13T08:50:24.340Z,9.43
2018-09-13T08:52:52.856Z,7.40
2018-09-13T08:55:21.350Z,7.10
2018-09-13T08:57:49.845Z,6.80
2018-09-13T09:00:18.363Z,6.67
2018-09-13T09:02:47.467Z,7.78
2018-09-13T09:05:15.944Z,6.45
2018-09-13T09:07:45.976Z,7.55
2018-09-13T09:10:14.498Z,6.50
2018-09-13T09:12:43.035Z,8.30
2018-09-13T09:15:11.541Z,7.70
2018-09-13T09:17:40.057Z,5.42
2018-09-13T09:20:08.580Z,8.90
2018-09-13T09:22:37.091Z,8.23
2018-09-13T09:25:05.595Z,9.65
2018-09-13T09:27:34.139Z,6.12
2018-09-13T09:30:02.628Z,8.88
2018-09-13T09:32:31.192Z,6.17
2018-09-13T09:34:59.692Z,7.33
2018-09-13T09:37:29.297Z,7.67
2018-09-13T09:39:57.837Z,6.17
2018-09-13T09:42:26.338Z,9.98
2018-09-13T09:44:54.857Z,7.72
2018-09-13T09:47:23.363Z,8.90
2018-09-13T09:49:51.906Z,8.48
2018-09-13T09:52:20.406Z,9.58
2018-09-13T09:54:48.970Z,10.82
2018-09-13T09:57:17.465Z,12.25
2018-09-13T09:59:45.990Z,12.98
2018-09-13T10:02:21.637Z,12.28
2018-09-13T10:04:50.338Z,11.70
2018-09-13T10:07:19.202Z,11.95
2018-09-13T10:09:48.286Z,10.70
2018-09-13T10:12:17.203Z,9.53
2018-09-13T10:14:51.164Z,10.28
2018-09-13T10:17:25.034Z,10.23
2018-09-13T10:19:58.711Z,10.45
2018-09-13T10:22:32.465Z,11.05
2018-09-13T10:25:06.224Z,10.68
2018-09-13T10:27:40.206Z,10.43
2018-09-13T10:30:13.993Z,12.93
2018-09-13T10:32:47.789Z,12.33
2018-09-13T10:35:21.804Z,11.63
2018-09-13T10:37:55.567Z,11.25
2018-09-13T10:41:32.680Z,11.38
2018-09-13T10:44:06.545Z,11.28
2018-09-13T10:46:35.706Z,10.38
2018-09-13T10:49:09.573Z,8.05
2018-09-13T10:51:43.455Z,7.42
2018-09-13T10:54:17.356Z,8.58
2018-09-13T10:56:45.894Z,8.23
2018-09-13T10:59:14.501Z,8.58
2018-09-13T11:01:42.975Z,7.62
2018-09-13T11:04:11.600Z,7.42
2018-09-13T11:06:40.103Z,9.88
2018-09-13T11:09:08.641Z,9.95
2018-09-13T11:11:37.160Z,7.30
2018-09-13T11:14:13.814Z,7.62
2018-09-13T11:16:42.342Z,8.95
2018-09-13T11:19:10.878Z,8.83
2018-09-13T11:21:39.451Z,6.60
2018-09-13T11:24:07.930Z,6.12
2018-09-13T11:26:36.415Z,6.40
2018-09-13T11:29:04.930Z,6.12
2018-09-13T11:31:33.450Z,6.65
2018-09-13T11:34:01.996Z,7.62
2018-09-13T11:36:30.532Z,8.68
2018-09-13T11:38:59.027Z,7.83
2018-09-13T11:41:27.572Z,6.62
2018-09-13T11:43:56.076Z,7.10
2018-09-13T11:46:24.669Z,6.50
2018-09-13T11:48:53.208Z,6.70
2018-09-13T11:51:21.718Z,6.33
2018-09-13T11:53:50.309Z,9.30
2018-09-13T11:56:18.842Z,5.65
2018-09-13T11:58:47.814Z,8.53
2018-09-13T12:01:16.336Z,6.05
2018-09-13T12:03:44.852Z,5.42
2018-09-13T12:06:13.529Z,5.15
2018-09-13T12:08:42.017Z,5.17
2018-09-13T12:11:10.532Z,7.15
2018-09-13T12:13:39.666Z,7.10
2018-09-13T12:16:08.171Z,6.70
2018-09-13T12:18:36.672Z,5.75
2018-09-13T12:21:05.212Z,5.67
2018-09-13T12:23:33.708Z,7.28
2018-09-13T12:26:02.190Z,7.40
2018-09-13T12:28:30.745Z,5.90
2018-09-13T12:30:59.239Z,6.50
2018-09-13T12:33:28.745Z,7.47
2018-09-13T12:35:57.724Z,5.10
2018-09-13T12:38:26.243Z,5.70
2018-09-13T12:40:54.719Z,4.65
2018-09-13T12:43:23.226Z,6.67
2018-09-13T12:45:51.727Z,6.62
2018-09-13T12:48:20.264Z,8.20
2018-09-13T12:50:48.834Z,5.87
2018-09-13T12:53:17.495Z,7.33
2018-09-13T12:55:51.455Z,4.42
2018-09-13T12:58:19.997Z,6.40
2018-09-13T13:00:48.514Z,5.55
2018-09-13T13:03:17.036Z,4.65
2018-09-13T13:05:45.534Z,8.85
2018-09-13T13:08:14.130Z,6.67
2018-09-13T13:10:42.710Z,4.22
2018-09-13T13:13:11.207Z,4.05
2018-09-13T13:15:39.714Z,5.45
2018-09-13T13:18:08.325Z,4.35
2018-09-13T13:20:36.910Z,6.42
2018-09-13T13:23:05.432Z,4.92
2018-09-13T13:25:33.990Z,5.70
2018-09-13T13:28:02.837Z,7.50
2018-09-13T13:30:31.339Z,4.80
2018-09-13T13:32:59.841Z,9.15
2018-09-13T13:35:28.419Z,4.60
2018-09-13T13:37:56.895Z,4.95
2018-09-13T13:40:25.382Z,5.03
2018-09-13T13:42:53.871Z,5.78
2018-09-13T13:45:22.366Z,6.87
2018-09-13T13:47:50.908Z,7.40
2018-09-13T13:50:19.395Z,6.15
2018-09-13T13:52:47.936Z,4.80
2018-09-13T13:55:16.481Z,4.95
2018-09-13T13:57:45.089Z,6.40
2018-09-13T14:00:13.665Z,5.50
2018-09-13T14:02:42.238Z,6.42
2018-09-13T14:05:11.134Z,4.62
2018-09-13T14:07:39.670Z,4.80
2018-09-13T14:10:07.912Z,5.85
2018-09-13T14:12:36.401Z,4.25
2018-09-13T14:15:05.017Z,5.40
2018-09-13T14:17:33.534Z,5.50
2018-09-13T14:20:02.063Z,4.92
2018-09-13T14:22:30.705Z,5.42
2018-09-13T14:24:59.275Z,4.08
2018-09-13T14:27:27.807Z,3.92
2018-09-13T14:29:56.472Z,4.65
2018-09-13T14:32:24.899Z,3.55
2018-09-13T14:34:53.405Z,5.70
2018-09-13T14:37:21.982Z,4.45
2018-09-13T14:39:51.208Z,6.55
2018-09-13T14:42:20.727Z,5.30
2018-09-13T14:44:49.312Z,7.05
2018-09-13T14:47:17.868Z,5.03
2018-09-13T14:49:46.374Z,6.78
2018-09-13T14:52:14.864Z,6.58
2018-09-13T14:54:43.419Z,5.05
2018-09-13T14:57:12.033Z,6.95
2018-09-13T14:59:40.563Z,7.15
2018-09-13T15:02:09.052Z,8.48
2018-09-13T15:04:37.641Z,8.78
2018-09-13T15:07:06.289Z,8.80
2018-09-13T15:09:34.832Z,5.30
2018-09-13T15:12:03.340Z,6.08
2018-09-13T15:14:31.935Z,4.42
2018-09-13T15:17:00.469Z,3.70
2018-09-13T15:19:29.028Z,5.72
2018-09-13T15:21:57.553Z,6.45
2018-09-13T15:24:26.156Z,6.25
2018-09-13T15:26:54.667Z,4.53
2018-09-13T15:29:23.234Z,6.53
2018-09-13T15:31:51.779Z,5.72
2018-09-13T15:34:20.320Z,5.22
2018-09-13T15:36:48.914Z,6.37
2018-09-13T15:39:17.386Z,6.00
2018-09-13T15:41:45.919Z,7.33
2018-09-13T15:44:15.225Z,4.75
2018-09-13T15:46:43.779Z,5.50
2018-09-13T15:49:12.295Z,5.00
2018-09-13T15:51:40.808Z,5.28
2018-09-13T15:54:09.675Z,5.58
2018-09-13T15:56:38.197Z,6.85
2018-09-13T15:59:06.808Z,7.03
2018-09-13T16:01:35.362Z,6.62
2018-09-13T16:04:03.875Z,5.00
2018-09-13T16:06:32.413Z,3.95
2018-09-13T16:09:00.893Z,5.87
2018-09-13T16:11:29.522Z,5.28
2018-09-13T16:13:58.063Z,5.05
2018-09-13T16:16:26.696Z,3.83
2018-09-13T16:18:56.017Z,3.72
2018-09-13T16:21:24.596Z,4.20
2018-09-13T16:23:53.150Z,4.05
2018-09-13T16:26:21.616Z,4.33
2018-09-13T16:28:50.169Z,3.52
2018-09-13T16:31:19.056Z,4.95
2018-09-13T16:33:47.580Z,5.00
2018-09-13T16:36:24.509Z,6.15
2018-09-13T16:38:58.528Z,9.78
2018-09-13T16:41:33.191Z,4.78
2018-09-13T16:44:03.578Z,7.25
2018-09-13T16:46:37.534Z,5.42
2018-09-13T16:49:06.798Z,6.12
2018-09-13T16:51:35.996Z,6.62
2018-09-13T16:54:04.665Z,6.35
2018-09-13T16:56:33.235Z,6.85
2018-09-13T16:59:01.808Z,5.60
2018-09-13T17:01:30.353Z,5.40
2018-09-13T17:03:59.778Z,5.75
2018-09-13T17:06:28.289Z,7.80
2018-09-13T17:08:56.814Z,5.30
2018-09-13T17:11:25.315Z,6.05
2018-09-13T17:13:53.895Z,6.30
2018-09-13T17:16:22.451Z,8.10
2018-09-13T17:18:50.986Z,7.03
2018-09-13T17:21:19.186Z,7.45
2018-09-13T17:23:47.695Z,7.25
2018-09-13T17:26:16.251Z,6.30
2018-09-13T17:28:44.763Z,7.33
2018-09-13T17:31:13.398Z,6.50
2018-09-13T17:33:41.886Z,9.88
2018-09-13T17:36:10.057Z,6.28
2018-09-13T17:38:38.564Z,9.35
2018-09-13T17:41:07.326Z,7.62
2018-09-13T17:43:35.853Z,8.43
2018-09-13T17:46:04.318Z,9.00
2018-09-13T17:48:32.834Z,10.35
2018-09-13T17:51:01.389Z,8.88
2018-09-13T17:53:29.920Z,9.48
2018-09-13T17:55:58.393Z,8.53
2018-09-13T17:58:26.938Z,8.63
2018-09-13T18:00:55.433Z,8.70
2018-09-13T18:03:24.007Z,11.40
2018-09-13T18:05:52.610Z,8.70
2018-09-13T18:08:21.216Z,10.90
2018-09-13T18:10:49.721Z,7.28
2018-09-13T18:13:18.268Z,9.55
2018-09-13T18:15:46.791Z,8.55
2018-09-13T18:18:15.317Z,9.50
2018-09-13T18:20:43.964Z,11.85
2018-09-13T18:23:12.525Z,9.05
2018-09-13T18:25:40.713Z,9.55
2018-09-13T18:28:09.208Z,9.03
2018-09-13T18:30:37.712Z,9.93
2018-09-13T18:33:06.236Z,9.35
2018-09-13T18:35:34.708Z,9.48
2018-09-13T18:38:03.329Z,11.68
2018-09-13T18:40:31.863Z,10.78
2018-09-13T18:43:00.376Z,14.40
2018-09-13T18:45:28.879Z,11.38
2018-09-13T18:47:57.403Z,12.85
2018-09-13T18:50:25.971Z,17.35
2018-09-13T18:52:54.496Z,13.75
2018-09-13T18:55:23.187Z,12.40
2018-09-13T18:57:51.714Z,11.80
2018-09-13T19:00:21.268Z,12.25
2018-09-13T19:02:49.780Z,13.53
2018-09-13T19:05:18.334Z,12.10
2018-09-13T19:07:46.824Z,12.85
2018-09-13T19:10:15.342Z,11.53
2018-09-13T19:12:43.830Z,11.80
2018-09-13T19:15:12.319Z,12.53
2018-09-13T19:17:40.892Z,13.22
2018-09-13T19:20:09.412Z,13.48
2018-09-13T19:22:38.024Z,13.83
2018-09-13T19:25:06.596Z,12.65
2018-09-13T19:27:35.126Z,13.40
2018-09-13T19:30:03.666Z,14.53
2018-09-13T19:32:32.184Z,12.75
2018-09-13T19:35:00.736Z,13.50
2018-09-13T19:37:29.247Z,14.03
2018-09-13T19:39:57.830Z,16.40
2018-09-13T19:42:26.407Z,14.33
2018-09-13T19:44:54.968Z,15.43
2018-09-13T19:47:23.511Z,14.00
2018-09-13T19:49:52.000Z,15.28
2018-09-13T19:52:20.553Z,13.62
2018-09-13T19:54:49.136Z,15.00
2018-09-13T19:57:17.639Z,14.10
2018-09-13T19:59:46.263Z,15.45
2018-09-13T20:02:14.781Z,17.98
2018-09-13T20:04:43.358Z,17.15
2018-09-13T20:07:11.908Z,16.77
2018-09-13T20:09:40.397Z,17.77
2018-09-13T20:12:09.007Z,17.07
2018-09-13T20:14:37.496Z,16.20
2018-09-13T20:17:06.143Z,18.27
2018-09-13T20:19:34.959Z,17.15
2018-09-13T20:22:03.470Z,17.27
2018-09-13T20:24:32.103Z,18.12
2018-09-13T20:27:00.559Z,17.55
2018-09-13T20:29:29.138Z,16.50
2018-09-13T20:31:57.627Z,16.00
2018-09-13T20:34:26.148Z,17.10
2018-09-13T20:36:54.637Z,16.45
2018-09-13T20:39:23.149Z,17.95
2018-09-13T20:41:58.241Z,18.62
2018-09-13T20:44:26.803Z,18.50
2018-09-13T20:46:55.363Z,18.02
2018-09-13T20:49:23.905Z,20.23
2018-09-13T20:51:52.409Z,17.90
2018-09-13T20:54:20.923Z,21.73
2018-09-13T20:56:49.462Z,19.52
2018-09-13T20:59:17.989Z,19.37
2018-09-13T21:01:46.467Z,20.17
2018-09-13T21:04:15.034Z,19.40
2018-09-13T21:06:43.574Z,21.23
2018-09-13T21:09:12.721Z,22.17
2018-09-13T21:11:41.340Z,20.17
2018-09-13T21:14:09.827Z,20.32
2018-09-13T21:16:38.330Z,19.05
2018-09-13T21:19:06.836Z,25.80
2018-09-13T21:21:35.332Z,19.90
2018-09-13T21:24:03.873Z,18.85
2018-09-13T21:26:32.379Z,20.57
2018-09-13T21:29:00.882Z,16.30
2018-09-13T21:31:29.398Z,16.42
2018-09-13T21:33:57.919Z,15.20
2018-09-13T21:36:26.671Z,11.53
2018-09-13T21:38:55.197Z,10.65
2018-09-13T21:41:23.723Z,11.20
2018-09-13T21:43:52.219Z,8.93
2018-09-13T21:46:20.734Z,8.68
2018-09-13T21:48:49.231Z,9.03
2018-09-13T21:51:17.781Z,10.25
2018-09-13T21:53:46.300Z,10.60
2018-09-13T21:56:14.821Z,8.33
2018-09-13T21:58:43.377Z,8.20
2018-09-13T22:01:11.879Z,7.50
2018-09-13T22:03:40.378Z,8.23
2018-09-13T22:06:08.869Z,7.95
2018-09-13T22:08:37.397Z,10.05
2018-09-13T22:11:06.187Z,7.37
2018-09-13T22:13:34.658Z,8.78
2018-09-13T22:16:03.597Z,9.10
2018-09-13T22:18:32.364Z,7.90
2018-09-13T22:21:00.847Z,8.45
2018-09-13T22:23:29.379Z,8.43
2018-09-13T22:25:57.920Z,8.63
2018-09-13T22:28:26.387Z,5.75
2018-09-13T22:30:54.866Z,8.00
2018-09-13T22:33:23.421Z,8.08
2018-09-13T22:35:51.950Z,10.53
2018-09-13T22:38:20.492Z,11.03
2018-09-13T22:40:49.004Z,12.13
2018-09-13T22:43:17.522Z,8.78
2018-09-13T22:45:46.049Z,7.35
2018-09-13T22:48:14.573Z,8.50
2018-09-13T22:50:43.038Z,7.65
2018-09-13T22:53:11.544Z,8.23
2018-09-13T22:55:40.053Z,8.90
2018-09-13T22:58:08.612Z,10.28
2018-09-13T23:00:37.110Z,7.60
2018-09-13T23:03:05.627Z,7.85
2018-09-13T23:05:34.119Z,10.05
2018-09-13T23:08:02.599Z,8.73
2018-09-13T23:10:31.135Z,10.18
2018-09-13T23:12:59.605Z,6.00
2018-09-13T23:15:28.085Z,9.50
2018-09-13T23:17:56.783Z,10.90
2018-09-13T23:20:25.292Z,7.58
2018-09-13T23:22:53.852Z,8.55
2018-09-13T23:25:22.476Z,7.85
2018-09-13T23:27:50.958Z,8.13
2018-09-13T23:30:19.457Z,10.35
2018-09-13T23:32:47.931Z,10.60
2018-09-13T23:35:16.428Z,7.40
2018-09-13T23:37:44.981Z,12.23
2018-09-13T23:40:13.463Z,10.40
2018-09-13T23:42:41.955Z,9.58
2018-09-13T23:45:10.496Z,9.40
2018-09-13T23:47:39.009Z,11.40
2018-09-13T23:50:07.545Z,9.55
2018-09-13T23:52:36.047Z,9.53
2018-09-13T23:55:04.604Z,10.45
2018-09-13T23:57:33.109Z,11.25
